createdAt,value
2023-03-17T00:00:03.406Z,1001.79
2023-03-17T00:01:03.591Z,1001.78
2023-03-17T00:02:05.333Z,1001.69
2023-03-17T00:03:04.028Z,1001.67
2023-03-17T00:04:04.290Z,1001.68
2023-03-17T00:05:05.246Z,1001.59
2023-03-17T00:06:04.556Z,1001.69
2023-03-17T00:07:04.754Z,1001.66
2023-03-17T00:08:05.294Z,1001.58
2023-03-17T00:09:05.190Z,1001.67
2023-03-17T00:10:05.345Z,1001.62
2023-03-17T00:11:05.541Z,1001.60
2023-03-17T00:12:05.711Z,1001.61
2023-03-17T00:13:05.850Z,1001.63
2023-03-17T00:14:06.013Z,1001.57
2023-03-17T00:15:07.746Z,1001.61
2023-03-17T00:16:07.340Z,1001.58
2023-03-17T00:17:06.514Z,1001.66
2023-03-17T00:18:06.677Z,1001.72
2023-03-17T00:19:06.842Z,1001.60
2023-03-17T00:20:07.022Z,1001.63
2023-03-17T00:21:07.785Z,1001.61
2023-03-17T00:22:07.455Z,1001.66
2023-03-17T00:23:07.610Z,1001.69
2023-03-17T00:24:09.260Z,1001.60
2023-03-17T00:25:07.996Z,1001.65
2023-03-17T00:26:08.155Z,1001.57
2023-03-17T00:27:08.795Z,1001.64
2023-03-17T00:28:08.804Z,1001.50
2023-03-17T00:29:08.730Z,1001.56
2023-03-17T00:30:09.743Z,1001.46
2023-03-17T00:31:09.150Z,1001.53
2023-03-17T00:32:10.246Z,1001.55
2023-03-17T00:33:09.513Z,1001.50
2023-03-17T00:34:10.252Z,1001.49
2023-03-17T00:35:09.883Z,1001.39
2023-03-17T00:36:10.018Z,1001.48
2023-03-17T00:37:10.186Z,1001.43
2023-03-17T00:38:11.281Z,1001.48
2023-03-17T00:39:10.510Z,1001.55
2023-03-17T00:40:10.632Z,1001.47
2023-03-17T00:41:11.786Z,1001.32
2023-03-17T00:42:11.037Z,1001.37
2023-03-17T00:43:11.181Z,1001.32
2023-03-17T00:44:11.308Z,1001.31
2023-03-17T00:45:11.482Z,1001.25
2023-03-17T00:46:11.678Z,1001.27
2023-03-17T00:47:12.744Z,1001.17
2023-03-17T00:48:11.999Z,1001.30
2023-03-17T00:49:12.317Z,1001.36
2023-03-17T00:50:13.248Z,1001.46
2023-03-17T00:51:12.489Z,1001.55
2023-03-17T00:52:12.643Z,1001.41
2023-03-17T00:53:12.808Z,1001.42
2023-03-17T00:54:12.951Z,1001.37
2023-03-17T00:55:14.118Z,1001.45
2023-03-17T00:56:13.331Z,1001.40
2023-03-17T00:57:13.509Z,1001.44
2023-03-17T00:58:13.676Z,1001.56
2023-03-17T00:59:13.830Z,1001.34
2023-03-17T01:00:14.009Z,1001.51
2023-03-17T01:01:14.253Z,1001.48
2023-03-17T01:02:14.935Z,1001.40
2023-03-17T01:03:14.505Z,1001.49
2023-03-17T01:04:14.648Z,1001.54
2023-03-17T01:05:17.695Z,1001.64
2023-03-17T01:06:15.042Z,1001.56
2023-03-17T01:07:15.260Z,1001.59
2023-03-17T01:08:16.286Z,1001.61
2023-03-17T01:09:15.663Z,1001.64
2023-03-17T01:10:15.832Z,1001.67
2023-03-17T01:11:16.029Z,1001.66
2023-03-17T01:12:16.752Z,1001.67
2023-03-17T01:13:16.392Z,1001.88
2023-03-17T01:14:16.578Z,1001.70
2023-03-17T01:15:16.766Z,1001.72
2023-03-17T01:16:17.007Z,1001.72
2023-03-17T01:17:17.615Z,1001.69
2023-03-17T01:18:17.281Z,1001.80
2023-03-17T01:19:18.753Z,1001.76
2023-03-17T01:20:17.796Z,1001.74
2023-03-17T01:21:18.797Z,1001.65
2023-03-17T01:22:18.037Z,1001.55
2023-03-17T01:23:18.197Z,1001.60
2023-03-17T01:24:19.315Z,1001.57
2023-03-17T01:25:18.542Z,1001.56
2023-03-17T01:26:18.686Z,1001.45
2023-03-17T01:27:18.835Z,1001.57
2023-03-17T01:28:19.802Z,1001.51
2023-03-17T01:29:19.168Z,1001.58
2023-03-17T01:30:19.805Z,1001.44
2023-03-17T01:31:19.465Z,1001.48
2023-03-17T01:32:19.642Z,1001.46
2023-03-17T01:33:20.804Z,1001.38
2023-03-17T01:34:20.052Z,1001.43
2023-03-17T01:35:20.751Z,1001.37
2023-03-17T01:36:22.190Z,1001.45
2023-03-17T01:37:21.297Z,1001.37
2023-03-17T01:38:21.257Z,1001.32
2023-03-17T01:39:20.891Z,1001.35
2023-03-17T01:40:21.090Z,1001.25
2023-03-17T01:41:21.310Z,1001.29
2023-03-17T01:42:22.757Z,1001.27
2023-03-17T01:43:23.258Z,1001.35
2023-03-17T01:44:21.776Z,1001.28
2023-03-17T01:45:22.756Z,1001.36
2023-03-17T01:46:22.786Z,1001.37
2023-03-17T01:47:22.316Z,1001.41
2023-03-17T01:48:22.488Z,1001.40
2023-03-17T01:49:23.300Z,1001.55
2023-03-17T01:50:22.839Z,1001.40
2023-03-17T01:51:23.044Z,1001.49
2023-03-17T01:52:23.262Z,1001.49
2023-03-17T01:53:23.402Z,1001.50
2023-03-17T01:54:24.759Z,1001.30
2023-03-17T01:55:23.780Z,1001.57
2023-03-17T01:56:23.934Z,1001.51
2023-03-17T01:57:24.101Z,1001.47
2023-03-17T01:58:24.244Z,1001.39
2023-03-17T01:59:25.411Z,1001.43
2023-03-17T02:00:24.569Z,1001.37
2023-03-17T02:01:24.782Z,1001.38
2023-03-17T02:02:24.989Z,1001.44
2023-03-17T02:03:25.157Z,1001.36
2023-03-17T02:04:25.320Z,1001.34
2023-03-17T02:05:25.472Z,1001.25
2023-03-17T02:06:25.610Z,1001.29
2023-03-17T02:07:25.800Z,1001.28
2023-03-17T02:08:25.934Z,1001.25
2023-03-17T02:09:26.085Z,1001.19
2023-03-17T02:10:26.233Z,1001.23
2023-03-17T02:11:26.389Z,1001.23
2023-03-17T02:12:26.644Z,1001.19
2023-03-17T02:13:28.265Z,1001.24
2023-03-17T02:14:28.787Z,1001.10
2023-03-17T02:15:27.131Z,1001.16
2023-03-17T02:16:27.304Z,1001.10
2023-03-17T02:17:28.815Z,1001.11
2023-03-17T02:18:29.281Z,1001.35
2023-03-17T02:19:27.778Z,1001.12
2023-03-17T02:20:29.846Z,1001.16
2023-03-17T02:21:28.768Z,1001.19
2023-03-17T02:22:28.291Z,1001.20
2023-03-17T02:23:28.489Z,1001.13
2023-03-17T02:24:28.669Z,1001.20
2023-03-17T02:25:29.765Z,1001.15
2023-03-17T02:26:29.766Z,1001.06
2023-03-17T02:27:29.781Z,1001.14
2023-03-17T02:28:29.316Z,1001.01
2023-03-17T02:29:29.678Z,1000.99
2023-03-17T02:30:30.613Z,1001.01
2023-03-17T02:31:29.785Z,1001.00
2023-03-17T02:32:30.092Z,1001.00
2023-03-17T02:33:30.187Z,1000.95
2023-03-17T02:34:31.269Z,1000.94
2023-03-17T02:35:31.922Z,1000.91
2023-03-17T02:36:30.778Z,1000.79
2023-03-17T02:37:31.638Z,1000.74
2023-03-17T02:38:32.787Z,1000.77
2023-03-17T02:39:32.779Z,1000.65
2023-03-17T02:40:31.917Z,1000.70
2023-03-17T02:41:31.650Z,1000.68
2023-03-17T02:42:32.776Z,1000.75
2023-03-17T02:43:32.043Z,1000.70
2023-03-17T02:44:32.194Z,1000.69
2023-03-17T02:45:32.396Z,1000.79
2023-03-17T02:46:32.648Z,1000.68
2023-03-17T02:47:32.774Z,1000.73
2023-03-17T02:48:33.777Z,1000.73
2023-03-17T02:49:33.183Z,1000.61
2023-03-17T02:50:33.384Z,1000.59
2023-03-17T02:51:33.563Z,1000.54
2023-03-17T02:52:33.752Z,1000.54
2023-03-17T02:53:33.917Z,1000.53
2023-03-17T02:54:34.086Z,1000.55
2023-03-17T02:55:34.267Z,1000.55
2023-03-17T02:56:34.468Z,1000.52
2023-03-17T02:57:34.611Z,1000.45
2023-03-17T02:58:34.745Z,1000.51
2023-03-17T02:59:34.909Z,1000.53
2023-03-17T03:00:35.774Z,1000.55
2023-03-17T03:01:35.325Z,1000.52
2023-03-17T03:02:35.590Z,1000.54
2023-03-17T03:03:36.317Z,1000.51
2023-03-17T03:04:36.651Z,1000.40
2023-03-17T03:05:36.793Z,1000.42
2023-03-17T03:06:36.223Z,1000.41
2023-03-17T03:07:36.834Z,1000.37
2023-03-17T03:08:37.301Z,1000.36
2023-03-17T03:09:36.830Z,1000.30
2023-03-17T03:10:38.277Z,1000.34
2023-03-17T03:11:37.145Z,1000.38
2023-03-17T03:12:37.328Z,1000.37
2023-03-17T03:13:38.284Z,1000.35
2023-03-17T03:14:37.688Z,1000.37
2023-03-17T03:15:37.879Z,1000.41
2023-03-17T03:16:38.035Z,1000.38
2023-03-17T03:17:38.828Z,1000.43
2023-03-17T03:18:39.282Z,1000.37
2023-03-17T03:19:38.552Z,1000.33
2023-03-17T03:20:38.705Z,1000.31
2023-03-17T03:21:39.791Z,1000.39
2023-03-17T03:22:39.781Z,1000.36
2023-03-17T03:23:39.199Z,1000.29
2023-03-17T03:24:39.386Z,1000.30
2023-03-17T03:25:39.545Z,1000.19
2023-03-17T03:26:39.732Z,1000.26
2023-03-17T03:27:40.794Z,1000.25
2023-03-17T03:28:40.838Z,1000.17
2023-03-17T03:29:40.251Z,1000.28
2023-03-17T03:30:40.433Z,1000.33
2023-03-17T03:31:40.581Z,1000.30
2023-03-17T03:32:41.839Z,1000.44
2023-03-17T03:33:40.986Z,1000.34
2023-03-17T03:34:41.786Z,1000.38
2023-03-17T03:35:41.353Z,1000.41
2023-03-17T03:36:42.290Z,1000.34
2023-03-17T03:37:42.296Z,1000.40
2023-03-17T03:38:41.860Z,1000.41
2023-03-17T03:39:42.800Z,1000.58
2023-03-17T03:40:42.209Z,1000.44
2023-03-17T03:41:42.401Z,1000.62
2023-03-17T03:42:42.605Z,1000.55
2023-03-17T03:43:42.801Z,1000.67
2023-03-17T03:44:43.789Z,1000.67
2023-03-17T03:45:43.241Z,1000.61
2023-03-17T03:46:43.482Z,1000.57
2023-03-17T03:47:43.565Z,1000.76
2023-03-17T03:48:43.756Z,1000.49
2023-03-17T03:49:43.930Z,1000.62
2023-03-17T03:50:44.121Z,1000.70
2023-03-17T03:51:45.299Z,1000.70
2023-03-17T03:52:44.436Z,1000.56
2023-03-17T03:53:45.288Z,1000.62
2023-03-17T03:54:44.842Z,1000.55
2023-03-17T03:55:45.020Z,1000.59
2023-03-17T03:56:45.336Z,1000.67
2023-03-17T03:57:45.501Z,1000.51
2023-03-17T03:58:46.586Z,1000.59
2023-03-17T03:59:45.740Z,1000.44
2023-03-17T04:00:45.935Z,1000.47
2023-03-17T04:01:46.797Z,1000.52
2023-03-17T04:02:46.357Z,1000.53
2023-03-17T04:03:46.542Z,1000.48
2023-03-17T04:04:46.746Z,1000.48
2023-03-17T04:05:46.986Z,1000.42
2023-03-17T04:06:47.172Z,1000.59
2023-03-17T04:07:47.327Z,1000.53
2023-03-17T04:08:48.329Z,1000.54
2023-03-17T04:09:47.598Z,1000.43
2023-03-17T04:10:47.784Z,1000.32
2023-03-17T04:11:47.963Z,1000.47
2023-03-17T04:12:48.796Z,1000.51
2023-03-17T04:13:48.317Z,1000.46
2023-03-17T04:14:49.792Z,1000.32
2023-03-17T04:15:48.712Z,1000.29
2023-03-17T04:16:48.926Z,1000.30
2023-03-17T04:17:49.113Z,1000.30
2023-03-17T04:18:49.352Z,1000.34
2023-03-17T04:19:49.428Z,1000.22
2023-03-17T04:20:50.339Z,1000.15
2023-03-17T04:21:52.359Z,1000.38
2023-03-17T04:22:49.985Z,1000.33
2023-03-17T04:23:50.833Z,1000.26
2023-03-17T04:24:51.369Z,1000.26
2023-03-17T04:25:51.332Z,1000.20
2023-03-17T04:26:52.302Z,1000.26
2023-03-17T04:27:51.350Z,1000.24
2023-03-17T04:28:51.154Z,1000.33
2023-03-17T04:29:52.293Z,1000.22
2023-03-17T04:30:51.563Z,1000.23
2023-03-17T04:31:52.952Z,1000.17
2023-03-17T04:32:51.882Z,1000.20
2023-03-17T04:33:52.062Z,1000.22
2023-03-17T04:34:52.221Z,1000.27
2023-03-17T04:35:52.425Z,1000.15
2023-03-17T04:36:52.587Z,1000.14
2023-03-17T04:37:53.340Z,1000.21
2023-03-17T04:38:53.802Z,1000.12
2023-03-17T04:39:53.182Z,1000.22
2023-03-17T04:40:53.387Z,1000.14
2023-03-17T04:41:54.519Z,1000.21
2023-03-17T04:42:53.768Z,1000.19
2023-03-17T04:43:53.916Z,1000.24
2023-03-17T04:44:54.065Z,1000.17
2023-03-17T04:45:54.229Z,1000.14
2023-03-17T04:46:55.297Z,1000.18
2023-03-17T04:47:54.861Z,1000.22
2023-03-17T04:48:54.856Z,1000.24
2023-03-17T04:49:56.166Z,1000.18
2023-03-17T04:50:55.139Z,1000.23
2023-03-17T04:51:55.305Z,1000.24
2023-03-17T04:52:56.454Z,1000.34
2023-03-17T04:53:56.339Z,1000.15
2023-03-17T04:54:55.753Z,1000.18
2023-03-17T04:55:55.896Z,1000.21
2023-03-17T04:56:56.039Z,1000.11
2023-03-17T04:57:56.229Z,1000.18
2023-03-17T04:58:56.387Z,1000.25
2023-03-17T04:59:57.800Z,1000.17
2023-03-17T05:00:57.893Z,1000.13
2023-03-17T05:01:57.380Z,1000.23
2023-03-17T05:02:57.801Z,1000.20
2023-03-17T05:03:57.199Z,1000.24
2023-03-17T05:04:57.353Z,1000.21
2023-03-17T05:05:57.496Z,1000.33
2023-03-17T05:06:57.646Z,1000.11
2023-03-17T05:07:57.802Z,1000.19
2023-03-17T05:08:57.965Z,1000.09
2023-03-17T05:09:59.306Z,1000.15
2023-03-17T05:10:58.330Z,1000.31
2023-03-17T05:11:58.529Z,1000.25
2023-03-17T05:12:58.692Z,1000.21
2023-03-17T05:13:58.849Z,1000.18
2023-03-17T05:14:59.021Z,1000.27
2023-03-17T05:15:59.205Z,1000.32
2023-03-17T05:16:59.376Z,1000.26
2023-03-17T05:17:59.564Z,1000.26
2023-03-17T05:19:00.322Z,1000.46
2023-03-17T05:19:59.967Z,1000.40
2023-03-17T05:21:00.139Z,1000.28
2023-03-17T05:22:21.291Z,1000.42
2023-03-17T05:23:01.339Z,1000.38
2023-03-17T05:24:01.309Z,1000.50
2023-03-17T05:25:01.811Z,1000.43
2023-03-17T05:26:01.188Z,1000.33
2023-03-17T05:27:01.358Z,1000.24
2023-03-17T05:28:01.546Z,1000.29
2023-03-17T05:29:01.717Z,1000.20
2023-03-17T05:30:02.807Z,1000.27
2023-03-17T05:31:02.909Z,1000.26
2023-03-17T05:32:02.213Z,1000.26
2023-03-17T05:33:03.424Z,1000.38
2023-03-17T05:34:03.314Z,1000.29
2023-03-17T05:35:02.720Z,1000.47
2023-03-17T05:36:02.923Z,1000.37
2023-03-17T05:37:03.103Z,1000.39
2023-03-17T05:38:03.272Z,1000.46
2023-03-17T05:39:03.462Z,1000.38
2023-03-17T05:40:03.656Z,1000.33
2023-03-17T05:41:03.883Z,1000.52
2023-03-17T05:42:25.816Z,1000.39
2023-03-17T05:43:05.308Z,1000.57
2023-03-17T05:44:04.471Z,1000.34
2023-03-17T05:45:05.342Z,1000.37
2023-03-17T05:46:04.946Z,1000.32
2023-03-17T05:47:06.821Z,1000.17
2023-03-17T05:48:05.335Z,1000.28
2023-03-17T05:49:05.869Z,1000.29
2023-03-17T05:50:05.651Z,1000.26
2023-03-17T05:51:05.842Z,1000.28
2023-03-17T05:52:05.989Z,1000.34
2023-03-17T05:53:06.375Z,1000.30
2023-03-17T05:54:06.288Z,1000.21
2023-03-17T05:55:07.844Z,1000.21
2023-03-17T05:56:06.606Z,1000.25
2023-03-17T05:57:06.777Z,1000.34
2023-03-17T05:58:06.968Z,1000.17
2023-03-17T05:59:07.145Z,1000.16
2023-03-17T06:00:07.875Z,1000.09
2023-03-17T06:01:08.377Z,1000.14
2023-03-17T06:02:07.639Z,1000.16
2023-03-17T06:03:07.931Z,1000.21
2023-03-17T06:04:08.845Z,1000.09
2023-03-17T06:05:08.261Z,999.94
2023-03-17T06:06:08.440Z,999.94
2023-03-17T06:07:08.596Z,1000.02
2023-03-17T06:08:08.871Z,999.92
2023-03-17T06:09:08.904Z,999.86
2023-03-17T06:10:09.061Z,999.94
2023-03-17T06:11:11.330Z,999.79
2023-03-17T06:12:10.189Z,999.88
2023-03-17T06:13:10.812Z,999.79
2023-03-17T06:14:10.787Z,999.90
2023-03-17T06:15:10.045Z,999.74
2023-03-17T06:16:10.252Z,999.68
2023-03-17T06:17:10.423Z,999.64
2023-03-17T06:18:10.597Z,999.72
2023-03-17T06:19:10.787Z,999.69
2023-03-17T06:20:10.949Z,999.56
2023-03-17T06:21:11.829Z,999.62
2023-03-17T06:22:11.339Z,999.58
2023-03-17T06:23:11.517Z,999.55
2023-03-17T06:24:11.714Z,999.19
2023-03-17T06:25:12.829Z,999.22
2023-03-17T06:26:12.090Z,998.98
2023-03-17T06:27:12.247Z,998.99
2023-03-17T06:28:13.836Z,998.77
2023-03-17T06:29:12.669Z,998.71
2023-03-17T06:30:13.857Z,998.72
2023-03-17T06:31:13.040Z,998.76
2023-03-17T06:32:20.455Z,998.78
2023-03-17T06:33:17.199Z,998.73
2023-03-17T06:34:13.534Z,998.68
2023-03-17T06:35:13.716Z,998.84
2023-03-17T06:36:14.865Z,998.76
2023-03-17T06:37:14.852Z,998.76
2023-03-17T06:38:14.368Z,998.78
2023-03-17T06:39:15.366Z,998.71
2023-03-17T06:40:14.647Z,998.52
2023-03-17T06:41:15.838Z,998.27
2023-03-17T06:42:16.703Z,997.93
2023-03-17T06:43:15.190Z,997.86
2023-03-17T06:44:15.375Z,997.56
2023-03-17T06:45:18.212Z,997.34
2023-03-17T06:46:15.912Z,997.07
2023-03-17T06:47:15.937Z,997.02
2023-03-17T06:48:16.832Z,996.86
2023-03-17T06:49:17.881Z,996.98
2023-03-17T06:50:16.374Z,997.10
2023-03-17T06:51:16.574Z,997.13
2023-03-17T06:52:17.832Z,997.01
2023-03-17T06:53:17.886Z,996.76
2023-03-17T06:54:17.146Z,996.60
2023-03-17T06:55:17.333Z,996.57
2023-03-17T06:56:29.424Z,996.26
2023-03-17T06:57:19.757Z,996.17
2023-03-17T06:58:17.884Z,996.01
2023-03-17T06:59:18.834Z,995.79
2023-03-17T07:00:18.272Z,995.61
2023-03-17T07:01:18.531Z,995.44
2023-03-17T07:02:18.587Z,995.03
2023-03-17T07:03:19.379Z,994.87
2023-03-17T07:04:18.939Z,994.65
2023-03-17T07:05:19.180Z,994.36
2023-03-17T07:06:20.841Z,994.16
2023-03-17T07:07:19.509Z,993.82
2023-03-17T07:08:20.393Z,993.60
2023-03-17T07:09:20.338Z,993.28
2023-03-17T07:10:20.038Z,993.12
2023-03-17T07:11:21.340Z,992.96
2023-03-17T07:12:21.356Z,992.93
2023-03-17T07:13:20.582Z,992.77
2023-03-17T07:14:21.344Z,992.70
2023-03-17T07:15:20.999Z,992.67
2023-03-17T07:16:21.204Z,992.56
2023-03-17T07:17:21.313Z,992.51
2023-03-17T07:18:21.529Z,992.51
2023-03-17T07:19:22.389Z,992.51
2023-03-17T07:20:21.957Z,992.52
2023-03-17T07:21:22.149Z,992.42
2023-03-17T07:22:22.364Z,992.34
2023-03-17T07:23:23.370Z,992.30
2023-03-17T07:24:23.344Z,992.25
2023-03-17T07:25:23.840Z,992.17
2023-03-17T07:26:23.891Z,992.10
2023-03-17T07:27:23.287Z,991.96
2023-03-17T07:28:23.389Z,991.78
2023-03-17T07:29:23.610Z,991.72
2023-03-17T07:30:23.848Z,991.55
2023-03-17T07:31:24.117Z,991.59
2023-03-17T07:32:24.187Z,991.35
2023-03-17T07:33:24.384Z,991.33
2023-03-17T07:34:24.591Z,991.31
2023-03-17T07:35:24.865Z,991.17
2023-03-17T07:36:24.953Z,991.08
2023-03-17T07:37:25.064Z,990.98
2023-03-17T07:38:25.212Z,990.80
2023-03-17T07:39:25.380Z,990.81
2023-03-17T07:40:25.587Z,990.64
2023-03-17T07:41:26.348Z,990.66
2023-03-17T07:42:26.888Z,990.64
2023-03-17T07:43:26.174Z,990.56
2023-03-17T07:44:26.350Z,990.51
2023-03-17T07:45:27.397Z,990.54
2023-03-17T07:46:26.797Z,990.51
2023-03-17T07:47:27.849Z,990.57
2023-03-17T07:48:27.087Z,990.55
2023-03-17T07:49:40.400Z,990.56
2023-03-17T07:50:29.690Z,990.49
2023-03-17T07:51:27.792Z,990.51
2023-03-17T07:52:28.010Z,990.50
2023-03-17T07:53:28.887Z,990.44
2023-03-17T07:54:29.285Z,990.48
2023-03-17T07:55:28.791Z,990.47
2023-03-17T07:56:28.833Z,990.47
2023-03-17T07:57:29.915Z,990.53
2023-03-17T07:58:29.214Z,990.64
2023-03-17T07:59:29.921Z,990.60
2023-03-17T08:00:30.091Z,990.66
2023-03-17T08:01:30.357Z,990.48
2023-03-17T08:02:30.062Z,990.56
2023-03-17T08:03:30.908Z,990.64
2023-03-17T08:04:30.869Z,990.67
2023-03-17T08:05:31.357Z,990.82
2023-03-17T08:06:30.623Z,990.86
2023-03-17T08:07:30.796Z,990.99
2023-03-17T08:08:31.038Z,990.93
2023-03-17T08:09:31.863Z,990.92
2023-03-17T08:10:31.669Z,991.14
2023-03-17T08:11:31.618Z,991.27
2023-03-17T08:12:31.851Z,991.48
2023-03-17T08:13:32.051Z,991.83
2023-03-17T08:14:32.214Z,991.81
2023-03-17T08:15:32.441Z,991.71
2023-03-17T08:16:32.732Z,991.65
2023-03-17T08:17:34.384Z,991.76
2023-03-17T08:18:32.968Z,991.95
2023-03-17T08:19:33.158Z,991.92
2023-03-17T08:20:33.861Z,992.04
2023-03-17T08:21:33.509Z,992.15
2023-03-17T08:22:34.402Z,992.04
2023-03-17T08:23:33.936Z,992.05
2023-03-17T08:24:34.731Z,992.00
2023-03-17T08:25:36.385Z,992.04
2023-03-17T08:26:34.437Z,992.29
2023-03-17T08:27:35.406Z,992.62
2023-03-17T08:28:34.889Z,992.62
2023-03-17T08:29:35.022Z,992.81
2023-03-17T08:30:35.659Z,992.73
2023-03-17T08:31:36.385Z,992.94
2023-03-17T08:32:37.457Z,993.06
2023-03-17T08:33:36.444Z,993.42
2023-03-17T08:34:35.736Z,993.58
2023-03-17T08:35:35.992Z,993.79
2023-03-17T08:36:36.083Z,994.18
2023-03-17T08:37:36.874Z,994.35
2023-03-17T08:38:37.377Z,994.58
2023-03-17T08:39:37.421Z,994.68
2023-03-17T08:40:36.838Z,994.62
2023-03-17T08:41:37.070Z,994.76
2023-03-17T08:42:37.255Z,994.71
2023-03-17T08:43:37.442Z,994.80
2023-03-17T08:44:37.645Z,994.97
2023-03-17T08:45:37.830Z,995.04
2023-03-17T08:46:38.740Z,995.19
2023-03-17T08:47:38.877Z,995.27
2023-03-17T08:48:38.292Z,995.29
2023-03-17T08:49:38.499Z,995.39
2023-03-17T08:50:38.700Z,995.40
2023-03-17T08:51:38.880Z,995.43
2023-03-17T08:52:40.896Z,995.49
2023-03-17T08:53:39.273Z,995.51
2023-03-17T08:54:40.418Z,995.50
2023-03-17T08:55:40.424Z,995.49
2023-03-17T08:56:39.720Z,995.47
2023-03-17T08:57:39.892Z,995.41
2023-03-17T08:58:40.165Z,995.32
2023-03-17T08:59:41.883Z,995.23
2023-03-17T09:00:40.883Z,995.31
2023-03-17T09:01:40.574Z,995.19
2023-03-17T09:02:40.804Z,995.00
2023-03-17T09:03:41.039Z,994.94
2023-03-17T09:04:42.381Z,994.96
2023-03-17T09:05:41.366Z,994.94
2023-03-17T09:07:01.243Z,994.88
2023-03-17T09:07:44.493Z,994.86
2023-03-17T09:08:42.387Z,994.91
2023-03-17T09:09:43.385Z,994.85
2023-03-17T09:10:44.264Z,995.00
2023-03-17T09:11:43.434Z,994.99
2023-03-17T09:12:42.586Z,995.07
2023-03-17T09:13:42.791Z,995.19
2023-03-17T09:14:44.920Z,995.32
2023-03-17T09:15:44.213Z,995.45
2023-03-17T09:16:43.389Z,995.40
2023-03-17T09:17:43.596Z,995.50
2023-03-17T09:18:43.761Z,995.57
2023-03-17T09:19:44.001Z,995.58
2023-03-17T09:20:44.180Z,995.54
2023-03-17T09:21:44.354Z,995.56
2023-03-17T09:22:44.546Z,995.53
2023-03-17T09:23:45.430Z,995.58
2023-03-17T09:24:44.838Z,995.59
2023-03-17T09:25:45.892Z,995.63
2023-03-17T09:26:45.897Z,995.68
2023-03-17T09:27:45.897Z,995.71
2023-03-17T09:28:46.402Z,995.75
2023-03-17T09:29:46.258Z,995.81
2023-03-17T09:30:45.919Z,995.84
2023-03-17T09:31:46.130Z,995.95
2023-03-17T09:32:46.400Z,996.06
2023-03-17T09:33:46.454Z,996.18
2023-03-17T09:34:51.341Z,996.29
2023-03-17T09:35:46.922Z,996.27
2023-03-17T09:36:47.891Z,996.28
2023-03-17T09:37:47.169Z,996.41
2023-03-17T09:38:47.337Z,996.32
2023-03-17T09:39:47.497Z,996.33
2023-03-17T09:40:47.664Z,996.40
2023-03-17T09:41:47.948Z,996.46
2023-03-17T09:42:48.015Z,996.45
2023-03-17T09:43:48.899Z,996.46
2023-03-17T09:45:09.408Z,996.39
2023-03-17T09:45:48.641Z,996.35
2023-03-17T09:46:48.870Z,996.21
2023-03-17T09:47:50.908Z,996.28
2023-03-17T09:48:49.182Z,996.28
2023-03-17T09:49:49.392Z,996.24
2023-03-17T09:50:49.621Z,996.27
2023-03-17T09:51:50.922Z,996.22
2023-03-17T09:52:51.457Z,996.41
2023-03-17T09:53:51.177Z,996.25
2023-03-17T09:54:51.904Z,996.34
2023-03-17T09:55:51.406Z,996.29
2023-03-17T09:56:50.953Z,996.27
2023-03-17T09:57:52.271Z,996.24
2023-03-17T09:58:51.389Z,996.27
2023-03-17T09:59:52.252Z,996.26
2023-03-17T10:00:52.918Z,996.28
2023-03-17T10:01:51.703Z,996.22
2023-03-17T10:02:52.270Z,996.30
2023-03-17T10:03:52.468Z,996.25
2023-03-17T10:04:52.278Z,996.28
2023-03-17T10:05:53.140Z,996.21
2023-03-17T10:06:52.600Z,996.26
2023-03-17T10:07:52.783Z,996.23
2023-03-17T10:08:52.947Z,996.16
2023-03-17T10:09:53.908Z,996.02
2023-03-17T10:10:53.910Z,996.03
2023-03-17T10:11:53.435Z,995.94
2023-03-17T10:12:53.601Z,995.92
2023-03-17T10:13:53.749Z,995.89
2023-03-17T10:14:56.417Z,995.75
2023-03-17T10:15:54.506Z,995.70
2023-03-17T10:16:54.181Z,995.78
2023-03-17T10:17:55.907Z,995.70
2023-03-17T10:18:54.518Z,995.62
2023-03-17T10:19:56.408Z,995.57
2023-03-17T10:20:56.406Z,995.56
2023-03-17T10:21:55.023Z,995.60
2023-03-17T10:22:55.204Z,995.44
2023-03-17T10:23:55.366Z,995.48
2023-03-17T10:24:55.538Z,995.48
2023-03-17T10:25:56.423Z,995.51
2023-03-17T10:26:56.915Z,995.55
2023-03-17T10:27:56.106Z,995.53
2023-03-17T10:28:56.285Z,995.58
2023-03-17T10:29:56.483Z,995.62
2023-03-17T10:30:56.690Z,995.65
2023-03-17T10:31:58.564Z,995.70
2023-03-17T10:32:58.145Z,995.74
2023-03-17T10:33:57.391Z,995.78
2023-03-17T10:34:58.468Z,995.86
2023-03-17T10:35:58.457Z,995.85
2023-03-17T10:36:58.002Z,995.95
2023-03-17T10:38:13.475Z,995.85
2023-03-17T10:39:00.336Z,995.86
2023-03-17T10:39:58.480Z,995.84
2023-03-17T10:40:58.690Z,995.79
2023-03-17T10:41:59.425Z,995.86
2023-03-17T10:42:59.957Z,995.71
2023-03-17T10:43:59.915Z,995.72
2023-03-17T10:44:59.457Z,995.73
2023-03-17T10:45:59.641Z,995.70
2023-03-17T10:46:59.841Z,995.74
2023-03-17T10:48:00.928Z,995.49
2023-03-17T10:49:00.205Z,995.55
2023-03-17T10:50:00.363Z,995.45
2023-03-17T10:51:01.460Z,995.36
2023-03-17T10:52:01.425Z,995.30
2023-03-17T10:53:00.938Z,995.27
2023-03-17T10:54:01.116Z,995.19
2023-03-17T10:55:01.280Z,995.16
2023-03-17T10:56:02.444Z,995.12
2023-03-17T10:57:03.438Z,995.05
2023-03-17T10:58:02.428Z,995.07
2023-03-17T10:59:01.935Z,995.08
2023-03-17T11:00:02.084Z,995.04
2023-03-17T11:01:02.245Z,995.08
2023-03-17T11:02:02.438Z,995.03
2023-03-17T11:03:02.592Z,995.10
2023-03-17T11:04:02.851Z,995.08
2023-03-17T11:05:03.424Z,995.15
2023-03-17T11:06:03.073Z,995.16
2023-03-17T11:07:03.236Z,995.12
2023-03-17T11:08:03.929Z,995.19
2023-03-17T11:09:03.974Z,995.22
2023-03-17T11:10:03.769Z,995.18
2023-03-17T11:11:03.930Z,995.15
2023-03-17T11:12:04.977Z,995.30
2023-03-17T11:13:04.245Z,995.35
2023-03-17T11:14:04.420Z,995.41
2023-03-17T11:15:05.936Z,995.38
2023-03-17T11:16:04.861Z,995.49
2023-03-17T11:17:05.023Z,995.66
2023-03-17T11:18:05.205Z,995.59
2023-03-17T11:19:05.370Z,995.71
2023-03-17T11:20:06.436Z,995.63
2023-03-17T11:21:06.446Z,995.68
2023-03-17T11:22:05.880Z,995.78
2023-03-17T11:23:07.944Z,995.70
2023-03-17T11:24:06.205Z,995.81
2023-03-17T11:25:06.421Z,995.89
2023-03-17T11:26:06.601Z,995.83
2023-03-17T11:27:06.832Z,995.84
2023-03-17T11:28:07.041Z,995.83
2023-03-17T11:29:07.225Z,995.78
2023-03-17T11:30:07.445Z,995.94
2023-03-17T11:31:07.668Z,995.85
2023-03-17T11:32:07.888Z,995.80
2023-03-17T11:33:08.095Z,995.91
2023-03-17T11:34:08.174Z,995.83
2023-03-17T11:35:08.386Z,995.78
2023-03-17T11:36:08.619Z,995.85
2023-03-17T11:37:09.941Z,995.85
2023-03-17T11:38:08.993Z,995.76
2023-03-17T11:39:09.808Z,995.78
2023-03-17T11:40:09.959Z,995.77
2023-03-17T11:41:09.409Z,995.83
2023-03-17T11:42:09.603Z,995.88
2023-03-17T11:43:09.802Z,995.83
2023-03-17T11:44:10.480Z,995.91
2023-03-17T11:45:10.818Z,995.83
2023-03-17T11:46:11.539Z,995.90
2023-03-17T11:47:10.464Z,995.93
2023-03-17T11:48:11.487Z,995.97
2023-03-17T11:49:10.862Z,995.99
2023-03-17T11:50:11.051Z,995.97
2023-03-17T11:51:11.995Z,995.99
2023-03-17T11:52:11.394Z,995.97
2023-03-17T11:53:11.572Z,995.95
2023-03-17T11:54:12.005Z,995.91
2023-03-17T11:55:11.934Z,995.93
2023-03-17T11:56:12.099Z,995.87
2023-03-17T11:57:12.811Z,995.97
2023-03-17T11:58:12.453Z,995.94
2023-03-17T11:59:13.501Z,996.09
2023-03-17T12:00:12.994Z,996.05
2023-03-17T12:01:13.443Z,996.06
2023-03-17T12:02:13.090Z,996.04
2023-03-17T12:03:13.305Z,996.04
2023-03-17T12:04:14.034Z,996.09
2023-03-17T12:05:14.443Z,996.09
2023-03-17T12:06:14.448Z,996.08
2023-03-17T12:07:13.943Z,996.01
2023-03-17T12:08:14.077Z,995.95
2023-03-17T12:09:14.982Z,996.09
2023-03-17T12:10:14.658Z,996.08
2023-03-17T12:11:14.591Z,996.15
2023-03-17T12:12:16.044Z,996.10
2023-03-17T12:13:15.890Z,996.09
2023-03-17T12:14:15.118Z,996.05
2023-03-17T12:15:16.265Z,996.05
2023-03-17T12:16:15.413Z,996.00
2023-03-17T12:17:16.009Z,995.95
2023-03-17T12:18:17.448Z,995.92
2023-03-17T12:19:15.918Z,995.99